PWSweather.com
Personal Weather Stations
Station Observations
SHAHALMS1
Eftra, Falkenberg, HA

EftraFalkenberg, HA

Lat: 56.85, Lon: 12.65

Elevation: 140

Station Type:

http://hem.passagen.se/risarp101

High Low Average
Temperature 42.1°F5.6°C 34.5°F1.4°C 39.7°F4.3°C
Dew Point 36.1°F2.3°C 24.0°F-4.4°C 31.1°F-0.5°C
Winds 22.5 mph 36.2 kmh 0.9 mph 1.4 kmh 10.0 mph WNW16.1 kmh WNW
Wind Gusts 47.6 mph76.6 kmh 5.4 mph8.7 kmh 23.0 mph37.0 kmh
Humidity 87% 59% 72%
Pressure 29.89 in1012.2 mb 29.15 in987.1 mb -
Precipitation 0.05 in1.3 mm - -
Hour Temp Dew Point Humidity Winds Wind Gusts Pressure Precip Precip Rate Daily Precip Total
12:00 AM 40.3°F4.6°C 34.3°F1.3°C 79% 22.5 mph SW36.2 kmh SW 44.4 mph71.5 kmh 29.15 in987.1 mb 0.00 in0.0 mm 0.00 in0.0 mm 0.00 in0.0 mm
12:15 AM 40.1°F4.5°C 34.7°F1.5°C 81% 21.9 mph WSW35.2 kmh WSW 43.3 mph69.7 kmh 29.18 in988.1 mb 0.00 in0.0 mm 0.00 in0.0 mm 0.00 in0.0 mm
12:30 AM 39.6°F4.2°C 34.5°F1.4°C 82% 19.8 mph WSW31.9 kmh WSW 41.9 mph67.4 kmh 29.15 in987.1 mb 0.00 in0.0 mm 0.00 in0.0 mm 0.00 in0.0 mm
12:45 AM 39.9°F4.4°C 35.2°F1.8°C 83% 18.0 mph WSW29.0 kmh WSW 42.2 mph67.9 kmh 29.18 in988.1 mb 0.00 in0.0 mm 0.00 in0.0 mm 0.00 in0.0 mm
01:00 AM 39.9°F4.4°C 35.2°F1.8°C 83% 17.9 mph SW28.8 kmh SW 38.3 mph61.6 kmh 29.18 in988.1 mb 0.00 in0.0 mm 0.00 in0.0 mm 0.00 in0.0 mm
01:15 AM 40.1°F4.5°C 35.4°F1.9°C 83% 19.9 mph WSW32.0 kmh WSW 37.6 mph60.5 kmh 29.18 in988.1 mb 0.00 in0.0 mm 0.00 in0.0 mm 0.00 in0.0 mm
01:30 AM 40.1°F4.5°C 35.0°F1.7°C 82% 20.0 mph W32.2 kmh W 35.8 mph57.6 kmh 29.18 in988.1 mb 0.00 in0.0 mm 0.00 in0.0 mm 0.00 in0.0 mm
01:45 AM 40.1°F4.5°C 35.0°F1.7°C 82% 19.6 mph WSW31.5 kmh WSW 36.9 mph59.4 kmh 29.18 in988.1 mb 0.00 in0.0 mm 0.00 in0.0 mm 0.00 in0.0 mm
02:00 AM 40.1°F4.5°C 34.7°F1.5°C 81% 21.6 mph WSW34.8 kmh WSW 47.6 mph76.6 kmh 29.18 in988.1 mb 0.00 in0.0 mm 0.00 in0.0 mm 0.00 in0.0 mm
02:15 AM 39.9°F4.4°C 34.6°F1.4°C 81% 20.5 mph WSW33.0 kmh WSW 40.1 mph64.5 kmh 29.18 in988.1 mb 0.00 in0.0 mm 0.00 in0.0 mm 0.00 in0.0 mm
02:30 AM 39.9°F4.4°C 34.9°F1.6°C 82% 18.4 mph W29.6 kmh W 38.7 mph62.3 kmh 29.18 in988.1 mb 0.00 in0.0 mm 0.00 in0.0 mm 0.00 in0.0 mm
02:45 AM 39.9°F4.4°C 34.6°F1.4°C 81% 19.1 mph WSW30.7 kmh WSW 40.4 mph65.0 kmh 29.21 in989.2 mb 0.00 in0.0 mm 0.00 in0.0 mm 0.00 in0.0 mm
03:00 AM 39.9°F4.4°C 34.9°F1.6°C 82% 18.7 mph WSW30.1 kmh WSW 36.5 mph58.7 kmh 29.18 in988.1 mb 0.00 in0.0 mm 0.00 in0.0 mm 0.00 in0.0 mm
03:15 AM 39.9°F4.4°C 34.9°F1.6°C 82% 20.5 mph WSW33.0 kmh WSW 37.9 mph61.0 kmh 29.18 in988.1 mb 0.00 in0.0 mm 0.00 in0.0 mm 0.00 in0.0 mm
03:30 AM 39.9°F4.4°C 35.2°F1.8°C 83% 18.5 mph WSW29.8 kmh WSW 37.6 mph60.5 kmh 29.21 in989.2 mb 0.00 in0.0 mm 0.00 in0.0 mm 0.00 in0.0 mm
03:45 AM 39.9°F4.4°C 35.5°F1.9°C 84% 18.7 mph W30.1 kmh W 44.7 mph71.9 kmh 29.18 in988.1 mb 0.00 in0.0 mm 0.00 in0.0 mm 0.00 in0.0 mm
04:00 AM 38.3°F3.5°C 33.3°F0.7°C 82% 8.9 mph W14.3 kmh W 21.1 mph34.0 kmh 29.18 in988.1 mb 0.00 in0.0 mm 0.00 in0.0 mm 0.00 in0.0 mm
04:15 AM 38.5°F3.6°C 34.7°F1.5°C 86% 14.7 mph WSW23.7 kmh WSW 32.2 mph51.8 kmh 29.15 in987.1 mb 0.00 in0.0 mm 0.00 in0.0 mm 0.00 in0.0 mm
04:30 AM 38.8°F3.8°C 35.3°F1.8°C 87% 15.5 mph W24.9 kmh W 32.6 mph52.5 kmh 29.18 in988.1 mb 0.00 in0.0 mm 0.00 in0.0 mm 0.00 in0.0 mm
04:45 AM 38.5°F3.6°C 34.7°F1.5°C 86% 14.3 mph W23.0 kmh W 26.8 mph43.1 kmh 29.18 in988.1 mb 0.00 in0.0 mm 0.00 in0.0 mm 0.00 in0.0 mm
05:00 AM 38.3°F3.5°C 34.2°F1.2°C 85% 15.9 mph W25.6 kmh W 37.2 mph59.9 kmh 29.18 in988.1 mb 0.00 in0.0 mm 0.00 in0.0 mm 0.00 in0.0 mm
05:15 AM 38.5°F3.6°C 34.7°F1.5°C 86% 12.6 mph W20.3 kmh W 26.5 mph42.6 kmh 29.18 in988.1 mb 0.00 in0.0 mm 0.00 in0.0 mm 0.00 in0.0 mm
05:31 AM 38.7°F3.7°C 34.8°F1.6°C 86% 14.1 mph W22.7 kmh W 32.2 mph51.8 kmh 29.18 in988.1 mb 0.00 in0.0 mm 0.00 in0.0 mm 0.00 in0.0 mm
05:45 AM 38.7°F3.7°C 34.8°F1.6°C 86% 13.2 mph W21.2 kmh W 31.9 mph51.3 kmh 29.18 in988.1 mb 0.00 in0.0 mm 0.00 in0.0 mm 0.00 in0.0 mm
06:00 AM 38.8°F3.8°C 34.7°F1.5°C 85% 10.7 mph W17.2 kmh W 21.1 mph34.0 kmh 29.21 in989.2 mb 0.00 in0.0 mm 0.00 in0.0 mm 0.00 in0.0 mm
06:15 AM 39.0°F3.9°C 34.9°F1.6°C 85% 10.2 mph W16.4 kmh W 19.7 mph31.7 kmh 29.21 in989.2 mb 0.00 in0.0 mm 0.00 in0.0 mm 0.00 in0.0 mm
06:30 AM 39.0°F3.9°C 34.9°F1.6°C 85% 10.1 mph W16.3 kmh W 20.4 mph32.8 kmh 29.21 in989.2 mb 0.00 in0.0 mm 0.00 in0.0 mm 0.00 in0.0 mm
06:45 AM 39.2°F4.0°C 35.1°F1.7°C 85% 11.5 mph W18.5 kmh W 24.3 mph39.1 kmh 29.24 in990.2 mb 0.00 in0.0 mm 0.00 in0.0 mm 0.00 in0.0 mm
07:00 AM 39.4°F4.1°C 35.2°F1.8°C 85% 9.3 mph W15.0 kmh W 17.5 mph28.2 kmh 29.24 in990.2 mb 0.00 in0.0 mm 0.00 in0.0 mm 0.00 in0.0 mm
07:15 AM 39.7°F4.3°C 35.6°F2.0°C 85% 8.5 mph W13.7 kmh W 16.8 mph27.0 kmh 29.24 in990.2 mb 0.00 in0.0 mm 0.00 in0.0 mm 0.00 in0.0 mm
07:30 AM 39.9°F4.4°C 35.8°F2.1°C 85% 9.6 mph W15.4 kmh W 20.0 mph32.2 kmh 29.21 in989.2 mb 0.00 in0.0 mm 0.00 in0.0 mm 0.00 in0.0 mm
07:45 AM 40.1°F4.5°C 35.7°F2.1°C 84% 6.7 mph W10.8 kmh W 14.0 mph22.5 kmh 29.24 in990.2 mb 0.00 in0.0 mm 0.00 in0.0 mm 0.00 in0.0 mm
08:00 AM 39.6°F4.2°C 34.8°F1.6°C 83% 7.5 mph WNW12.1 kmh WNW 17.2 mph27.7 kmh 29.27 in991.2 mb 0.00 in0.0 mm 0.00 in0.0 mm 0.00 in0.0 mm
08:15 AM 39.9°F4.4°C 35.5°F1.9°C 84% 6.6 mph W10.6 kmh W 16.8 mph27.0 kmh 29.30 in992.2 mb 0.00 in0.0 mm 0.00 in0.0 mm 0.00 in0.0 mm
08:30 AM 40.3°F4.6°C 36.1°F2.3°C 85% 6.7 mph W10.8 kmh W 11.8 mph19.0 kmh 29.30 in992.2 mb 0.00 in0.0 mm 0.00 in0.0 mm 0.00 in0.0 mm
08:45 AM 40.5°F4.7°C 36.0°F2.2°C 84% 7.1 mph W11.4 kmh W 20.0 mph32.2 kmh 29.30 in992.2 mb 0.00 in0.0 mm 0.00 in0.0 mm 0.00 in0.0 mm
09:00 AM 40.3°F4.6°C 34.9°F1.6°C 81% 7.7 mph W12.4 kmh W 14.7 mph23.7 kmh 29.30 in992.2 mb 0.00 in0.0 mm 0.00 in0.0 mm 0.00 in0.0 mm
09:15 AM 40.8°F4.9°C 34.8°F1.6°C 79% 7.8 mph NW12.6 kmh NW 26.5 mph42.6 kmh 29.33 in993.2 mb 0.00 in0.0 mm 0.00 in0.0 mm 0.00 in0.0 mm
09:30 AM 40.6°F4.8°C 33.7°F0.9°C 76% 9.3 mph WNW15.0 kmh WNW 20.8 mph33.5 kmh 29.33 in993.2 mb 0.00 in0.0 mm 0.00 in0.0 mm 0.00 in0.0 mm
09:45 AM 40.8°F4.9°C 32.8°F0.4°C 73% 9.4 mph WNW15.1 kmh WNW 23.3 mph37.5 kmh 29.36 in994.2 mb 0.00 in0.0 mm 0.00 in0.0 mm 0.00 in0.0 mm
10:00 AM 41.5°F5.3°C 32.1°F0.1°C 69% 11.2 mph NW18.0 kmh NW 30.4 mph48.9 kmh 29.36 in994.2 mb 0.00 in0.0 mm 0.00 in0.0 mm 0.00 in0.0 mm
10:15 AM 42.1°F5.6°C 33.0°F0.6°C 70% 8.1 mph NW13.0 kmh NW 15.7 mph25.3 kmh 29.33 in993.2 mb 0.00 in0.0 mm 0.00 in0.0 mm 0.00 in0.0 mm
10:30 AM 41.5°F5.3°C 32.1°F0.1°C 69% 10.7 mph WNW17.2 kmh WNW 22.5 mph36.2 kmh 29.36 in994.2 mb 0.00 in0.0 mm 0.00 in0.0 mm 0.00 in0.0 mm
10:45 AM 41.4°F5.2°C 31.9°F-0.1°C 69% 9.8 mph NW15.8 kmh NW 21.1 mph34.0 kmh 29.39 in995.3 mb 0.00 in0.0 mm 0.00 in0.0 mm 0.00 in0.0 mm
11:00 AM 40.5°F4.7°C 31.1°F-0.5°C 69% 12.1 mph NW19.5 kmh NW 25.1 mph40.4 kmh 29.41 in995.9 mb 0.00 in0.0 mm 0.00 in0.0 mm 0.00 in0.0 mm
11:15 AM 39.9°F4.4°C 30.9°F-0.6°C 70% 10.1 mph NW16.3 kmh NW 19.7 mph31.7 kmh 29.39 in995.3 mb 0.00 in0.0 mm 0.00 in0.0 mm 0.00 in0.0 mm
11:30 AM 40.3°F4.6°C 32.0°F0.0°C 72% 9.8 mph WNW15.8 kmh WNW 20.0 mph32.2 kmh 29.41 in995.9 mb 0.00 in0.0 mm 0.00 in0.0 mm 0.00 in0.0 mm
11:45 AM 40.3°F4.6°C 32.3°F0.2°C 73% 8.5 mph WNW13.7 kmh WNW 27.9 mph44.9 kmh 29.45 in997.3 mb 0.00 in0.0 mm 0.00 in0.0 mm 0.00 in0.0 mm
12:00 PM 40.3°F4.6°C 31.6°F-0.2°C 71% 9.3 mph WNW15.0 kmh WNW 21.8 mph35.1 kmh 29.45 in997.3 mb 0.00 in0.0 mm 0.00 in0.0 mm 0.00 in0.0 mm
12:15 PM 40.5°F4.7°C 29.6°F-1.3°C 65% 14.3 mph NW23.0 kmh NW 36.9 mph59.4 kmh 29.47 in998.0 mb 0.00 in0.0 mm 0.00 in0.0 mm 0.00 in0.0 mm
12:30 PM 41.0°F5.0°C 29.4°F-1.4°C 63% 14.2 mph NW22.9 kmh NW 36.1 mph58.1 kmh 29.47 in998.0 mb 0.00 in0.0 mm 0.00 in0.0 mm 0.00 in0.0 mm
12:45 PM 40.6°F4.8°C 29.0°F-1.7°C 63% 13.2 mph NW21.2 kmh NW 35.8 mph57.6 kmh 29.47 in998.0 mb 0.00 in0.0 mm 0.00 in0.0 mm 0.00 in0.0 mm
01:00 PM 40.1°F4.5°C 28.5°F-1.9°C 63% 10.5 mph NW16.9 kmh NW 32.9 mph52.9 kmh 29.47 in998.0 mb 0.00 in0.0 mm 0.00 in0.0 mm 0.00 in0.0 mm
01:15 PM 40.1°F4.5°C 28.1°F-2.2°C 62% 15.6 mph NW25.1 kmh NW 38.3 mph61.6 kmh 29.47 in998.0 mb 0.05 in1.3 mm 0.20 in5.1 mm 0.05 in1.3 mm
01:30 PM 40.8°F4.9°C 28.8°F-1.8°C 62% 12.0 mph NW19.3 kmh NW 21.0 mph33.8 kmh 29.47 in998.0 mb 0.05 in1.3 mm 0.00 in0.0 mm 0.05 in1.3 mm
01:34 PM 40.8°F4.9°C 28.8°F-1.8°C 62% 9.9 mph W15.9 kmh W 12.2 mph19.6 kmh 29.47 in998.0 mb 0.05 in1.3 mm 0.00 in0.0 mm 0.05 in1.3 mm
01:35 PM 40.8°F4.9°C 28.8°F-1.8°C 62% 11.5 mph WNW18.5 kmh WNW 16.1 mph25.9 kmh 29.47 in998.0 mb 0.05 in1.3 mm 0.00 in0.0 mm 0.05 in1.3 mm
01:36 PM 40.8°F4.9°C 28.8°F-1.8°C 62% 10.8 mph NW17.4 kmh NW 16.1 mph25.9 kmh 29.47 in998.0 mb 0.05 in1.3 mm 0.00 in0.0 mm 0.05 in1.3 mm
01:45 PM 41.0°F5.0°C 28.6°F-1.9°C 61% 14.9 mph NW24.0 kmh NW 44.7 mph71.9 kmh 29.53 in1000.0 mb 0.05 in1.3 mm 0.00 in0.0 mm 0.05 in1.3 mm
02:00 PM 40.3°F4.6°C 27.5°F-2.5°C 60% 16.8 mph NW27.0 kmh NW 38.3 mph61.6 kmh 29.53 in1000.0 mb 0.00 in0.0 mm 0.00 in0.0 mm 0.05 in1.3 mm
02:15 PM 39.7°F4.3°C 27.8°F-2.3°C 62% 12.7 mph NW20.4 kmh NW 24.7 mph39.8 kmh 29.53 in1000.0 mb 0.00 in0.0 mm 0.00 in0.0 mm 0.05 in1.3 mm
02:30 PM 40.5°F4.7°C 28.8°F-1.8°C 63% 10.7 mph NW17.2 kmh NW 23.3 mph37.5 kmh 29.53 in1000.0 mb 0.00 in0.0 mm 0.00 in0.0 mm 0.05 in1.3 mm
02:45 PM 41.0°F5.0°C 29.0°F-1.7°C 62% 11.7 mph WNW18.8 kmh WNW 23.6 mph38.0 kmh 29.53 in1000.0 mb 0.00 in0.0 mm 0.00 in0.0 mm 0.05 in1.3 mm
03:00 PM 41.4°F5.2°C 28.9°F-1.7°C 61% 10.3 mph WNW16.6 kmh WNW 22.9 mph36.9 kmh 29.56 in1001.0 mb 0.00 in0.0 mm 0.00 in0.0 mm 0.05 in1.3 mm
03:15 PM 41.5°F5.3°C 28.7°F-1.8°C 60% 9.8 mph NW15.8 kmh NW 17.5 mph28.2 kmh 29.59 in1002.0 mb 0.00 in0.0 mm 0.00 in0.0 mm 0.05 in1.3 mm
03:30 PM 41.2°F5.1°C 28.3°F-2.1°C 60% 9.1 mph WNW14.6 kmh WNW 20.4 mph32.8 kmh 29.59 in1002.0 mb 0.00 in0.0 mm 0.00 in0.0 mm 0.05 in1.3 mm
03:45 PM 41.0°F5.0°C 27.8°F-2.3°C 59% 11.0 mph NW17.7 kmh NW 24.7 mph39.8 kmh 29.59 in1002.0 mb 0.00 in0.0 mm 0.00 in0.0 mm 0.05 in1.3 mm
04:00 PM 41.2°F5.1°C 28.3°F-2.1°C 60% 9.0 mph NW14.5 kmh NW 17.2 mph27.7 kmh 29.59 in1002.0 mb 0.00 in0.0 mm 0.00 in0.0 mm 0.05 in1.3 mm
04:15 PM 41.5°F5.3°C 29.1°F-1.6°C 61% 8.1 mph NW13.0 kmh NW 17.5 mph28.2 kmh 29.62 in1003.0 mb 0.00 in0.0 mm 0.00 in0.0 mm 0.05 in1.3 mm
04:30 PM 41.9°F5.5°C 28.6°F-1.9°C 59% 13.0 mph NW20.9 kmh NW 30.8 mph49.6 kmh 29.62 in1003.0 mb 0.00 in0.0 mm 0.00 in0.0 mm 0.05 in1.3 mm
04:45 PM 42.1°F5.6°C 29.2°F-1.6°C 60% 10.9 mph NW17.5 kmh NW 24.7 mph39.8 kmh 29.65 in1004.1 mb 0.00 in0.0 mm 0.00 in0.0 mm 0.05 in1.3 mm
05:00 PM 41.9°F5.5°C 29.0°F-1.7°C 60% 8.1 mph NW13.0 kmh NW 20.4 mph32.8 kmh 29.65 in1004.1 mb 0.00 in0.0 mm 0.00 in0.0 mm 0.05 in1.3 mm
05:15 PM 41.2°F5.1°C 28.3°F-2.1°C 60% 7.5 mph NW12.1 kmh NW 14.0 mph22.5 kmh 29.62 in1003.0 mb 0.00 in0.0 mm 0.00 in0.0 mm 0.05 in1.3 mm
05:30 PM 40.6°F4.8°C 28.2°F-2.1°C 61% 5.4 mph NW8.7 kmh NW 15.7 mph25.3 kmh 29.65 in1004.1 mb 0.00 in0.0 mm 0.00 in0.0 mm 0.05 in1.3 mm
05:45 PM 40.5°F4.7°C 28.5°F-1.9°C 62% 5.8 mph NW9.3 kmh NW 12.9 mph20.8 kmh 29.68 in1005.1 mb 0.00 in0.0 mm 0.00 in0.0 mm 0.05 in1.3 mm
06:00 PM 40.3°F4.6°C 29.1°F-1.6°C 64% 6.9 mph NW11.1 kmh NW 13.6 mph21.9 kmh 29.68 in1005.1 mb 0.00 in0.0 mm 0.00 in0.0 mm 0.05 in1.3 mm
06:15 PM 40.3°F4.6°C 29.1°F-1.6°C 64% 8.1 mph NW13.0 kmh NW 14.0 mph22.5 kmh 29.71 in1006.1 mb 0.00 in0.0 mm 0.00 in0.0 mm 0.05 in1.3 mm
06:30 PM 40.1°F4.5°C 28.9°F-1.7°C 64% 8.3 mph N13.4 kmh N 14.0 mph22.5 kmh 29.68 in1005.1 mb 0.00 in0.0 mm 0.00 in0.0 mm 0.05 in1.3 mm
06:45 PM 39.9°F4.4°C 28.3°F-2.1°C 63% 7.2 mph NNW11.6 kmh NNW 12.9 mph20.8 kmh 29.68 in1005.1 mb 0.00 in0.0 mm 0.00 in0.0 mm 0.05 in1.3 mm
07:00 PM 39.7°F4.3°C 28.5°F-1.9°C 64% 6.1 mph NNW9.8 kmh NNW 12.5 mph20.1 kmh 29.74 in1007.1 mb 0.00 in0.0 mm 0.00 in0.0 mm 0.05 in1.3 mm
07:15 PM 39.6°F4.2°C 28.4°F-2.0°C 64% 4.8 mph NW7.7 kmh NW 11.8 mph19.0 kmh 29.77 in1008.1 mb 0.00 in0.0 mm 0.00 in0.0 mm 0.05 in1.3 mm
07:30 PM 39.2°F4.0°C 28.0°F-2.2°C 64% 1.2 mph NW1.9 kmh NW 5.4 mph8.7 kmh 29.80 in1009.1 mb 0.00 in0.0 mm 0.00 in0.0 mm 0.05 in1.3 mm
07:45 PM 38.7°F3.7°C 27.9°F-2.3°C 65% 1.9 mph WNW3.1 kmh WNW 8.6 mph13.8 kmh 29.74 in1007.1 mb 0.00 in0.0 mm 0.00 in0.0 mm 0.05 in1.3 mm
08:00 PM 38.8°F3.8°C 28.1°F-2.2°C 65% 1.5 mph NW2.4 kmh NW 6.8 mph10.9 kmh 29.80 in1009.1 mb 0.00 in0.0 mm 0.00 in0.0 mm 0.05 in1.3 mm
08:15 PM 38.8°F3.8°C 28.1°F-2.2°C 65% 1.5 mph NW2.4 kmh NW 6.1 mph9.8 kmh 29.80 in1009.1 mb 0.00 in0.0 mm 0.00 in0.0 mm 0.05 in1.3 mm
08:30 PM 39.2°F4.0°C 28.0°F-2.2°C 64% 3.9 mph WNW6.3 kmh WNW 10.0 mph16.1 kmh 29.80 in1009.1 mb 0.00 in0.0 mm 0.00 in0.0 mm 0.05 in1.3 mm
08:45 PM 39.0°F3.9°C 27.1°F-2.7°C 62% 3.5 mph WNW5.6 kmh WNW 7.9 mph12.7 kmh 29.80 in1009.1 mb 0.00 in0.0 mm 0.00 in0.0 mm 0.05 in1.3 mm
09:00 PM 38.8°F3.8°C 26.5°F-3.1°C 61% 4.4 mph WNW7.1 kmh WNW 11.5 mph18.5 kmh 29.83 in1010.2 mb 0.00 in0.0 mm 0.00 in0.0 mm 0.05 in1.3 mm
09:15 PM 38.5°F3.6°C 26.2°F-3.2°C 61% 3.6 mph W5.8 kmh W 8.9 mph14.3 kmh 29.83 in1010.2 mb 0.00 in0.0 mm 0.00 in0.0 mm 0.05 in1.3 mm
09:30 PM 37.6°F3.1°C 25.3°F-3.7°C 61% 2.8 mph W4.5 kmh W 8.6 mph13.8 kmh 29.80 in1009.1 mb 0.00 in0.0 mm 0.00 in0.0 mm 0.05 in1.3 mm
09:45 PM 36.5°F2.5°C 24.7°F-4.1°C 62% 0.9 mph W1.4 kmh W 6.8 mph10.9 kmh 29.83 in1010.2 mb 0.00 in0.0 mm 0.00 in0.0 mm 0.05 in1.3 mm
10:00 PM 36.1°F2.3°C 25.1°F-3.8°C 64% 1.8 mph W2.9 kmh W 8.6 mph13.8 kmh 29.86 in1011.2 mb 0.00 in0.0 mm 0.00 in0.0 mm 0.05 in1.3 mm
10:15 PM 36.3°F2.4°C 26.0°F-3.3°C 66% 4.7 mph W7.6 kmh W 12.9 mph20.8 kmh 29.86 in1011.2 mb 0.00 in0.0 mm 0.00 in0.0 mm 0.05 in1.3 mm
10:30 PM 36.5°F2.5°C 26.6°F-3.0°C 67% 4.4 mph W7.1 kmh W 10.0 mph16.1 kmh 29.89 in1012.2 mb 0.00 in0.0 mm 0.00 in0.0 mm 0.05 in1.3 mm
10:45 PM 36.7°F2.6°C 27.5°F-2.5°C 69% 3.8 mph WNW6.1 kmh WNW 8.9 mph14.3 kmh 29.89 in1012.2 mb 0.00 in0.0 mm 0.00 in0.0 mm 0.05 in1.3 mm
11:00 PM 36.5°F2.5°C 26.6°F-3.0°C 67% 5.4 mph NW8.7 kmh NW 14.0 mph22.5 kmh 29.86 in1011.2 mb 0.00 in0.0 mm 0.00 in0.0 mm 0.05 in1.3 mm
11:15 PM 36.0°F2.2°C 25.7°F-3.5°C 66% 3.8 mph NW6.1 kmh NW 7.2 mph11.6 kmh 29.86 in1011.2 mb 0.00 in0.0 mm 0.00 in0.0 mm 0.05 in1.3 mm
11:30 PM 35.1°F1.7°C 24.5°F-4.2°C 65% 1.3 mph NW2.1 kmh NW 5.4 mph8.7 kmh 29.86 in1011.2 mb 0.00 in0.0 mm 0.00 in0.0 mm 0.05 in1.3 mm
11:45 PM 34.5°F1.4°C 24.0°F-4.4°C 65% 2.1 mph NW3.4 kmh NW 9.3 mph15.0 kmh 29.89 in1012.2 mb 0.00 in0.0 mm 0.00 in0.0 mm 0.05 in1.3 mm